Time,TemperatureF,DewpointF,PressureIn,WindDirection,WindDirectionDegrees,WindSpeedMPH,WindSpeedGustMPH,Humidity,HourlyPrecipIn,Conditions,Clouds,dailyrainin,SoftwareType,DateUTC
2013-12-27 00:03:00,23.1,20.6,30.23,WSW,250,1.0,1.0,90,0.00,,,0.00,Wunderground v.1.15,2013-12-27 06:03:00,
2013-12-27 00:08:00,22.6,19.8,30.23,SW,224,3.0,3.0,89,0.00,,,0.00,Wunderground v.1.15,2013-12-27 06:08:00,
2013-12-27 00:13:00,22.1,19.4,30.23,SW,215,4.0,4.0,89,0.00,,,0.00,Wunderground v.1.15,2013-12-27 06:13:00,
2013-12-27 00:19:00,21.5,18.8,30.23,SSW,207,2.0,4.0,89,0.00,,,0.00,Wunderground v.1.15,2013-12-27 06:19:00,
2013-12-27 00:24:00,21.2,18.7,30.23,SSW,207,1.0,3.0,90,0.00,,,0.00,Wunderground v.1.15,2013-12-27 06:24:00,
2013-12-27 00:30:00,20.9,18.4,30.23,SSW,207,2.0,3.0,90,0.00,,,0.00,Wunderground v.1.15,2013-12-27 06:30:00,
2013-12-27 00:35:00,20.9,18.7,30.23,SSW,207,1.0,2.0,91,0.00,,,0.00,Wunderground v.1.15,2013-12-27 06:35:00,
2013-12-27 00:40:00,20.9,18.7,30.23,SSW,207,0.0,2.0,91,0.00,,,0.00,Wunderground v.1.15,2013-12-27 06:40:00,
2013-12-27 00:45:00,21.0,19.0,30.23,SSW,213,1.0,1.0,92,0.00,,,0.00,Wunderground v.1.15,2013-12-27 06:45:00,
2013-12-27 00:50:00,21.2,19.2,30.23,SSW,213,0.0,1.0,92,0.00,,,0.00,Wunderground v.1.15,2013-12-27 06:50:00,
2013-12-27 00:56:00,21.3,19.3,30.23,SW,219,0.0,1.0,92,0.00,,,0.00,Wunderground v.1.15,2013-12-27 06:56:00,
2013-12-27 01:03:00,21.3,19.3,30.23,SW,219,0.0,0.0,92,0.00,,,0.00,Wunderground v.1.15,2013-12-27 07:03:00,
2013-12-27 01:08:00,21.1,19.1,30.24,WSW,238,0.0,1.0,92,0.00,,,0.00,Wunderground v.1.15,2013-12-27 07:08:00,
2013-12-27 01:14:00,20.9,18.9,30.24,WSW,238,0.0,0.0,92,0.00,,,0.00,Wunderground v.1.15,2013-12-27 07:14:00,
2013-12-27 01:19:00,20.9,18.9,30.24,WSW,238,0.0,0.0,92,0.00,,,0.00,Wunderground v.1.15,2013-12-27 07:19:00,
2013-12-27 01:24:00,20.8,18.8,30.24,WSW,238,0.0,0.0,92,0.00,,,0.00,Wunderground v.1.15,2013-12-27 07:24:00,
2013-12-27 01:29:00,20.4,18.2,30.24,WSW,238,0.0,1.0,91,0.00,,,0.00,Wunderground v.1.15,2013-12-27 07:29:00,
2013-12-27 01:35:00,19.9,17.7,30.24,WSW,238,0.0,0.0,91,0.00,,,0.00,Wunderground v.1.15,2013-12-27 07:35:00,
2013-12-27 01:41:00,19.6,17.7,30.24,WSW,238,1.0,1.0,92,0.00,,,0.00,Wunderground v.1.15,2013-12-27 07:41:00,
2013-12-27 01:46:00,20.0,18.3,30.24,WSW,238,0.0,1.0,93,0.00,,,0.00,Wunderground v.1.15,2013-12-27 07:46:00,
2013-12-27 01:52:00,20.3,18.6,30.24,WSW,238,0.0,0.0,93,0.00,,,0.00,Wunderground v.1.15,2013-12-27 07:52:00,
2013-12-27 01:58:00,20.7,19.0,30.25,WSW,238,1.0,1.0,93,0.00,,,0.00,Wunderground v.1.15,2013-12-27 07:58:00,
2013-12-27 02:03:00,20.7,19.0,30.25,WSW,238,0.0,0.0,93,0.00,,,0.00,Wunderground v.1.15,2013-12-27 08:03:00,
2013-12-27 02:08:00,20.6,18.9,30.25,WSW,238,0.0,0.0,93,0.00,,,0.00,Wunderground v.1.15,2013-12-27 08:08:00,
2013-12-27 02:13:00,20.6,18.9,30.25,WSW,238,0.0,0.0,93,0.00,,,0.00,Wunderground v.1.15,2013-12-27 08:13:00,
2013-12-27 02:18:00,20.4,18.4,30.25,WSW,238,0.0,0.0,92,0.00,,,0.00,Wunderground v.1.15,2013-12-27 08:18:00,
2013-12-27 02:23:00,20.1,18.1,30.25,WSW,238,0.0,0.0,92,0.00,,,0.00,Wunderground v.1.15,2013-12-27 08:23:00,
2013-12-27 02:28:00,20.0,18.3,30.25,WSW,238,0.0,0.0,93,0.00,,,0.00,Wunderground v.1.15,2013-12-27 08:28:00,
2013-12-27 02:33:00,20.0,18.3,30.25,WSW,238,0.0,0.0,93,0.00,,,0.00,Wunderground v.1.15,2013-12-27 08:33:00,
2013-12-27 02:38:00,20.0,18.3,30.25,WSW,238,1.0,2.0,93,0.00,,,0.00,Wunderground v.1.15,2013-12-27 08:38:00,
2013-12-27 02:43:00,19.8,18.1,30.25,WSW,238,0.0,1.0,93,0.00,,,0.00,Wunderground v.1.15,2013-12-27 08:43:00,
2013-12-27 02:48:00,19.6,17.9,30.25,WSW,238,0.0,1.0,93,0.00,,,0.00,Wunderground v.1.15,2013-12-27 08:48:00,
2013-12-27 02:53:00,19.5,17.8,30.25,WSW,238,0.0,0.0,93,0.00,,,0.00,Wunderground v.1.15,2013-12-27 08:53:00,
2013-12-27 02:58:00,19.3,17.6,30.25,WSW,238,0.0,0.0,93,0.00,,,0.00,Wunderground v.1.15,2013-12-27 08:58:00,
2013-12-27 03:03:00,19.2,17.5,30.25,WSW,238,0.0,0.0,93,0.00,,,0.00,Wunderground v.1.15,2013-12-27 09:03:00,
2013-12-27 03:08:00,19.3,17.9,30.25,WSW,238,0.0,0.0,94,0.00,,,0.00,Wunderground v.1.15,2013-12-27 09:08:00,
2013-12-27 03:13:00,19.3,17.6,30.25,WSW,238,0.0,0.0,93,0.00,,,0.00,Wunderground v.1.15,2013-12-27 09:13:00,
2013-12-27 03:18:00,19.5,18.1,30.25,WSW,238,0.0,0.0,94,0.00,,,0.00,Wunderground v.1.15,2013-12-27 09:18:00,
2013-12-27 03:23:00,19.5,18.1,30.25,WSW,238,0.0,0.0,94,0.00,,,0.00,Wunderground v.1.15,2013-12-27 09:23:00,
2013-12-27 03:28:00,19.3,17.6,30.25,WSW,238,1.0,2.0,93,0.00,,,0.00,Wunderground v.1.15,2013-12-27 09:28:00,
2013-12-27 03:33:00,19.0,17.3,30.24,WSW,238,1.0,2.0,93,0.00,,,0.00,Wunderground v.1.15,2013-12-27 09:33:00,
2013-12-27 03:38:00,18.8,17.1,30.24,WSW,238,0.0,2.0,93,0.00,,,0.00,Wunderground v.1.15,2013-12-27 09:38:00,
2013-12-27 03:43:00,18.7,17.0,30.24,WSW,238,0.0,0.0,93,0.00,,,0.00,Wunderground v.1.15,2013-12-27 09:43:00,
2013-12-27 03:48:00,18.6,16.9,30.24,WSW,238,2.0,3.0,93,0.00,,,0.00,Wunderground v.1.15,2013-12-27 09:48:00,
2013-12-27 03:53:00,17.9,16.0,30.25,WSW,238,1.0,2.0,92,0.00,,,0.00,Wunderground v.1.15,2013-12-27 09:53:00,
2013-12-27 03:58:00,17.4,15.5,30.25,WSW,238,2.0,2.0,92,0.00,,,0.00,Wunderground v.1.15,2013-12-27 09:58:00,
2013-12-27 04:03:00,17.0,15.1,30.25,SW,230,2.0,3.0,92,0.00,,,0.00,Wunderground v.1.15,2013-12-27 10:03:00,
2013-12-27 04:08:00,17.0,15.3,30.25,SW,228,2.0,3.0,93,0.00,,,0.00,Wunderground v.1.15,2013-12-27 10:08:00,
2013-12-27 04:13:00,17.3,15.9,30.24,SW,228,0.0,2.0,94,0.00,,,0.00,Wunderground v.1.15,2013-12-27 10:13:00,
2013-12-27 04:18:00,17.5,15.8,30.24,SW,228,0.0,2.0,93,0.00,,,0.00,Wunderground v.1.15,2013-12-27 10:18:00,
2013-12-27 04:23:00,17.5,15.8,30.24,SW,228,0.0,0.0,93,0.00,,,0.00,Wunderground v.1.15,2013-12-27 10:23:00,
2013-12-27 04:28:00,17.5,15.8,30.24,SW,228,0.0,0.0,93,0.00,,,0.00,Wunderground v.1.15,2013-12-27 10:28:00,
2013-12-27 04:33:00,17.4,15.7,30.24,SW,228,0.0,1.0,93,0.00,,,0.00,Wunderground v.1.15,2013-12-27 10:33:00,
2013-12-27 04:38:00,17.3,15.6,30.25,SW,228,0.0,1.0,93,0.00,,,0.00,Wunderground v.1.15,2013-12-27 10:38:00,
2013-12-27 04:43:00,17.1,15.4,30.24,SW,228,0.0,0.0,93,0.00,,,0.00,Wunderground v.1.15,2013-12-27 10:43:00,
2013-12-27 04:48:00,17.0,15.3,30.25,SW,228,0.0,0.0,93,0.00,,,0.00,Wunderground v.1.15,2013-12-27 10:48:00,
2013-12-27 04:53:00,16.8,15.1,30.25,SW,228,0.0,1.0,93,0.00,,,0.00,Wunderground v.1.15,2013-12-27 10:53:00,
2013-12-27 04:58:00,16.6,14.9,30.25,SW,228,0.0,1.0,93,0.00,,,0.00,Wunderground v.1.15,2013-12-27 10:58:00,
2013-12-27 05:03:00,16.5,14.8,30.25,SW,228,0.0,0.0,93,0.00,,,0.00,Wunderground v.1.15,2013-12-27 11:03:00,
2013-12-27 05:08:00,16.3,14.6,30.25,SW,228,0.0,0.0,93,0.00,,,0.00,Wunderground v.1.15,2013-12-27 11:08:00,
2013-12-27 05:13:00,15.9,14.0,30.25,SW,228,2.0,3.0,92,0.00,,,0.00,Wunderground v.1.15,2013-12-27 11:13:00,
2013-12-27 05:23:00,14.7,12.8,30.25,SW,226,2.0,2.0,92,0.00,,,0.00,Wunderground v.1.15,2013-12-27 11:23:00,
2013-12-27 05:28:00,14.7,12.8,30.25,SW,221,2.0,5.0,92,0.00,,,0.00,Wunderground v.1.15,2013-12-27 11:28:00,
2013-12-27 05:33:00,14.7,13.0,30.25,SW,225,2.0,3.0,93,0.00,,,0.00,Wunderground v.1.15,2013-12-27 11:33:00,
2013-12-27 05:38:00,14.8,13.1,30.25,SW,234,2.0,3.0,93,0.00,,,0.00,Wunderground v.1.15,2013-12-27 11:38:00,
2013-12-27 05:43:00,14.9,13.2,30.25,SW,224,2.0,4.0,93,0.00,,,0.00,Wunderground v.1.15,2013-12-27 11:43:00,
2013-12-27 05:49:00,15.1,13.4,30.25,SW,225,2.0,4.0,93,0.00,,,0.00,Wunderground v.1.15,2013-12-27 11:49:00,
2013-12-27 05:54:00,15.2,13.5,30.25,SW,223,1.0,3.0,93,0.00,,,0.00,Wunderground v.1.15,2013-12-27 11:54:00,
2013-12-27 05:59:00,15.3,13.6,30.25,WSW,238,1.0,3.0,93,0.00,,,0.00,Wunderground v.1.15,2013-12-27 11:59:00,
2013-12-27 06:04:00,15.4,13.7,30.26,SW,234,1.0,2.0,93,0.00,,,0.00,Wunderground v.1.15,2013-12-27 12:04:00,
2013-12-27 06:09:00,15.4,13.7,30.26,SW,234,0.0,1.0,93,0.00,,,0.00,Wunderground v.1.15,2013-12-27 12:09:00,
2013-12-27 06:14:00,15.3,13.4,30.26,SW,234,0.0,0.0,92,0.00,,,0.00,Wunderground v.1.15,2013-12-27 12:14:00,
2013-12-27 06:19:00,15.2,13.3,30.26,SW,234,1.0,2.0,92,0.00,,,0.00,Wunderground v.1.15,2013-12-27 12:19:00,
2013-12-27 06:24:00,14.8,12.9,30.27,SW,226,3.0,3.0,92,0.00,,,0.00,Wunderground v.1.15,2013-12-27 12:24:00,
2013-12-27 06:29:00,14.2,12.1,30.27,SW,216,2.0,4.0,91,0.00,,,0.00,Wunderground v.1.15,2013-12-27 12:29:00,
2013-12-27 06:34:00,14.0,12.1,30.27,SW,216,0.0,3.0,92,0.00,,,0.00,Wunderground v.1.15,2013-12-27 12:34:00,
2013-12-27 06:39:00,13.9,12.0,30.27,SW,216,1.0,3.0,92,0.00,,,0.00,Wunderground v.1.15,2013-12-27 12:39:00,
2013-12-27 06:44:00,13.9,12.0,30.27,SW,216,1.0,1.0,92,0.00,,,0.00,Wunderground v.1.15,2013-12-27 12:44:00,
2013-12-27 06:49:00,14.0,12.1,30.27,SW,216,0.0,2.0,92,0.00,,,0.00,Wunderground v.1.15,2013-12-27 12:49:00,
2013-12-27 06:54:00,14.2,12.5,30.27,SW,216,0.0,0.0,93,0.00,,,0.00,Wunderground v.1.15,2013-12-27 12:54:00,
2013-12-27 06:59:00,14.5,12.8,30.26,SW,217,0.0,0.0,93,0.00,,,0.00,Wunderground v.1.15,2013-12-27 12:59:00,
2013-12-27 07:04:00,14.7,13.0,30.26,SW,217,0.0,0.0,93,0.00,,,0.00,Wunderground v.1.15,2013-12-27 13:04:00,
2013-12-27 07:09:00,14.6,12.7,30.26,SW,217,0.0,0.0,92,0.00,,,0.00,Wunderground v.1.15,2013-12-27 13:09:00,
2013-12-27 07:14:00,14.5,12.6,30.27,SW,217,0.0,0.0,92,0.00,,,0.00,Wunderground v.1.15,2013-12-27 13:14:00,
2013-12-27 07:19:00,14.4,12.5,30.27,SW,217,0.0,0.0,92,0.00,,,0.00,Wunderground v.1.15,2013-12-27 13:19:00,
2013-12-27 07:24:00,14.5,12.6,30.26,SW,217,0.0,0.0,92,0.00,,,0.00,Wunderground v.1.15,2013-12-27 13:24:00,
2013-12-27 07:29:00,14.9,13.2,30.27,SW,229,1.0,2.0,93,0.00,,,0.00,Wunderground v.1.15,2013-12-27 13:29:00,
2013-12-27 07:34:00,15.2,13.5,30.27,WSW,249,2.0,3.0,93,0.00,,,0.00,Wunderground v.1.15,2013-12-27 13:34:00,
2013-12-27 07:39:00,15.2,13.3,30.27,WSW,249,0.0,3.0,92,0.00,,,0.00,Wunderground v.1.15,2013-12-27 13:39:00,
2013-12-27 07:44:00,15.1,13.2,30.27,WSW,249,0.0,1.0,92,0.00,,,0.00,Wunderground v.1.15,2013-12-27 13:44:00,
2013-12-27 07:49:00,15.2,13.5,30.27,WSW,250,1.0,1.0,93,0.00,,,0.00,Wunderground v.1.15,2013-12-27 13:49:00,
2013-12-27 07:54:00,15.4,13.7,30.27,WSW,251,0.0,0.0,93,0.00,,,0.00,Wunderground v.1.15,2013-12-27 13:54:00,
2013-12-27 07:59:00,15.5,13.8,30.27,WSW,251,1.0,1.0,93,0.00,,,0.00,Wunderground v.1.15,2013-12-27 13:59:00,
2013-12-27 08:04:00,15.8,14.1,30.26,SW,220,1.0,2.0,93,0.00,,,0.00,Wunderground v.1.15,2013-12-27 14:04:00,
2013-12-27 08:09:00,16.1,14.4,30.26,SSW,210,3.0,3.0,93,0.00,,,0.00,Wunderground v.1.15,2013-12-27 14:09:00,
2013-12-27 08:14:00,15.8,13.9,30.26,South,170,4.0,4.0,92,0.00,,,0.00,Wunderground v.1.15,2013-12-27 14:14:00,
2013-12-27 08:19:00,15.2,13.0,30.26,South,170,5.0,5.0,91,0.00,,,0.00,Wunderground v.1.15,2013-12-27 14:19:00,
2013-12-27 08:25:00,14.7,12.6,30.26,SSE,167,5.0,5.0,91,0.00,,,0.00,Wunderground v.1.15,2013-12-27 14:25:00,
2013-12-27 08:30:00,14.1,12.0,30.26,SSE,164,5.0,6.0,91,0.00,,,0.00,Wunderground v.1.15,2013-12-27 14:30:00,
2013-12-27 08:35:00,13.9,12.0,30.26,SSE,156,2.0,5.0,92,0.00,,,0.00,Wunderground v.1.15,2013-12-27 14:35:00,
2013-12-27 08:40:00,13.8,11.9,30.26,SSE,157,2.0,5.0,92,0.00,,,0.00,Wunderground v.1.15,2013-12-27 14:40:00,
2013-12-27 08:45:00,14.3,12.6,30.26,SSE,155,2.0,4.0,93,0.00,,,0.00,Wunderground v.1.15,2013-12-27 14:45:00,
2013-12-27 08:50:00,14.9,13.2,30.26,SSE,154,2.0,4.0,93,0.00,,,0.00,Wunderground v.1.15,2013-12-27 14:50:00,
2013-12-27 08:55:00,15.6,14.2,30.26,SSE,156,1.0,4.0,94,0.00,,,0.00,Wunderground v.1.15,2013-12-27 14:55:00,
2013-12-27 09:00:00,16.2,14.8,30.26,SE,146,2.0,4.0,94,0.00,,,0.00,Wunderground v.1.15,2013-12-27 15:00:00,
2013-12-27 09:05:00,16.8,15.4,30.26,SSE,163,4.0,4.0,94,0.00,,,0.00,Wunderground v.1.15,2013-12-27 15:05:00,
2013-12-27 09:10:00,17.1,15.4,30.25,SSE,155,4.0,5.0,93,0.00,,,0.00,Wunderground v.1.15,2013-12-27 15:10:00,
2013-12-27 09:15:00,17.1,15.4,30.25,SSE,150,2.0,4.0,93,0.00,,,0.00,Wunderground v.1.15,2013-12-27 15:15:00,
2013-12-27 09:20:00,17.1,15.4,30.26,SSE,166,1.0,4.0,93,0.00,,,0.00,Wunderground v.1.15,2013-12-27 15:20:00,
2013-12-27 09:25:00,17.5,15.8,30.25,SSE,154,4.0,5.0,93,0.00,,,0.00,Wunderground v.1.15,2013-12-27 15:25:00,
2013-12-27 09:30:00,17.7,16.0,30.25,SSE,159,5.0,5.0,93,0.00,,,0.00,Wunderground v.1.15,2013-12-27 15:30:00,
2013-12-27 09:35:00,18.1,16.7,30.25,SSE,159,5.0,5.0,94,0.00,,,0.00,Wunderground v.1.15,2013-12-27 15:35:00,
2013-12-27 09:40:00,18.4,17.0,30.25,South,183,4.0,6.0,94,0.00,,,0.00,Wunderground v.1.15,2013-12-27 15:40:00,
2013-12-27 09:45:00,18.8,17.4,30.25,South,178,5.0,5.0,94,0.00,,,0.00,Wunderground v.1.15,2013-12-27 15:45:00,
2013-12-27 09:50:00,19.1,17.7,30.25,South,177,5.0,6.0,94,0.00,,,0.00,Wunderground v.1.15,2013-12-27 15:50:00,
2013-12-27 09:55:00,19.3,17.9,30.25,South,182,4.0,5.0,94,0.00,,,0.00,Wunderground v.1.15,2013-12-27 15:55:00,
2013-12-27 10:00:00,19.5,18.1,30.25,South,179,6.0,6.0,94,0.00,,,0.00,Wunderground v.1.15,2013-12-27 16:00:00,
2013-12-27 10:05:00,19.9,18.5,30.25,South,182,5.0,7.0,94,0.00,,,0.00,Wunderground v.1.15,2013-12-27 16:05:00,
2013-12-27 10:10:00,20.3,18.8,30.25,South,175,5.0,7.0,94,0.00,,,0.00,Wunderground v.1.15,2013-12-27 16:10:00,
2013-12-27 10:15:00,20.7,19.2,30.25,South,172,7.0,7.0,94,0.00,,,0.00,Wunderground v.1.15,2013-12-27 16:15:00,
2013-12-27 10:20:00,21.1,19.6,30.25,South,181,6.0,8.0,94,0.00,,,0.00,Wunderground v.1.15,2013-12-27 16:20:00,
2013-12-27 10:25:00,21.6,20.1,30.25,South,181,7.0,8.0,94,0.00,,,0.00,Wunderground v.1.15,2013-12-27 16:25:00,
2013-12-27 10:30:00,22.0,20.5,30.25,South,176,5.0,8.0,94,0.00,,,0.00,Wunderground v.1.15,2013-12-27 16:30:00,
2013-12-27 10:35:00,22.2,20.7,30.25,SSW,209,5.0,6.0,94,0.00,,,0.00,Wunderground v.1.15,2013-12-27 16:35:00,
2013-12-27 10:40:00,22.7,21.5,30.25,SSW,205,6.0,8.0,95,0.00,,,0.00,Wunderground v.1.15,2013-12-27 16:40:00,
2013-12-27 10:45:00,23.3,22.1,30.24,SSW,205,8.0,10.0,95,0.00,,,0.00,Wunderground v.1.15,2013-12-27 16:45:00,
2013-12-27 10:50:00,23.8,22.6,30.24,SSW,201,10.0,10.0,95,0.00,,,0.00,Wunderground v.1.15,2013-12-27 16:50:00,
2013-12-27 10:55:00,24.3,23.1,30.24,SSW,194,10.0,11.0,95,0.00,,,0.00,Wunderground v.1.15,2013-12-27 16:55:00,
2013-12-27 11:01:00,24.7,23.2,30.23,SSW,209,10.0,12.0,94,0.00,,,0.00,Wunderground v.1.15,2013-12-27 17:01:00,
2013-12-27 11:06:00,24.9,23.4,30.23,SSW,194,10.0,12.0,94,0.00,,,0.00,Wunderground v.1.15,2013-12-27 17:06:00,
2013-12-27 11:11:00,25.3,23.8,30.23,SSW,193,9.0,11.0,94,0.00,,,0.00,Wunderground v.1.15,2013-12-27 17:11:00,
2013-12-27 11:16:00,25.8,24.3,30.23,South,184,8.0,12.0,94,0.00,,,0.00,Wunderground v.1.15,2013-12-27 17:16:00,
2013-12-27 11:22:00,26.4,24.7,30.22,South,187,8.0,8.0,93,0.00,,,0.00,Wunderground v.1.15,2013-12-27 17:22:00,
2013-12-27 11:27:00,26.9,25.1,30.22,South,182,9.0,11.0,93,0.00,,,0.00,Wunderground v.1.15,2013-12-27 17:27:00,
2013-12-27 11:32:00,27.4,25.4,30.21,South,180,7.0,9.0,92,0.00,,,0.00,Wunderground v.1.15,2013-12-27 17:32:00,
2013-12-27 11:37:00,27.8,25.5,30.21,South,176,6.0,10.0,91,0.00,,,0.00,Wunderground v.1.15,2013-12-27 17:37:00,
2013-12-27 11:42:00,28.2,25.9,30.21,SSW,196,10.0,10.0,91,0.00,,,0.00,Wunderground v.1.15,2013-12-27 17:42:00,
2013-12-27 11:47:00,28.8,26.2,30.20,SSW,194,12.0,12.0,90,0.00,,,0.00,Wunderground v.1.15,2013-12-27 17:47:00,
2013-12-27 11:52:00,29.4,26.6,30.21,South,190,10.0,10.0,89,0.00,,,0.00,Wunderground v.1.15,2013-12-27 17:52:00,
2013-12-27 11:58:00,29.8,26.7,30.20,SSW,194,8.0,12.0,88,0.00,,,0.00,Wunderground v.1.15,2013-12-27 17:58:00,
2013-12-27 12:03:00,30.2,27.1,30.20,SSW,200,8.0,10.0,88,0.00,,,0.00,Wunderground v.1.15,2013-12-27 18:03:00,
2013-12-27 12:08:00,30.8,27.4,30.20,South,190,8.0,12.0,87,0.00,,,0.00,Wunderground v.1.15,2013-12-27 18:08:00,
2013-12-27 12:13:00,31.2,27.8,30.19,SSW,195,10.0,11.0,87,0.00,,,0.00,Wunderground v.1.15,2013-12-27 18:13:00,
2013-12-27 12:18:00,31.7,28.0,30.19,South,188,6.0,12.0,86,0.00,,,0.00,Wunderground v.1.15,2013-12-27 18:18:00,
2013-12-27 12:23:00,32.3,28.3,30.18,SSW,200,9.0,13.0,85,0.00,,,0.00,Wunderground v.1.15,2013-12-27 18:23:00,
2013-12-27 12:28:00,32.8,28.8,30.18,SSW,192,10.0,13.0,85,0.00,,,0.00,Wunderground v.1.15,2013-12-27 18:28:00,
2013-12-27 12:33:00,33.1,28.8,30.17,SSW,198,9.0,10.0,84,0.00,,,0.00,Wunderground v.1.15,2013-12-27 18:33:00,
2013-12-27 12:38:00,33.5,29.2,30.16,SSW,192,10.0,13.0,84,0.00,,,0.00,Wunderground v.1.15,2013-12-27 18:38:00,
2013-12-27 12:43:00,33.7,29.1,30.16,SSW,193,9.0,12.0,83,0.00,,,0.00,Wunderground v.1.15,2013-12-27 18:43:00,
2013-12-27 12:48:00,33.8,29.5,30.16,South,191,9.0,14.0,84,0.00,,,0.00,Wunderground v.1.15,2013-12-27 18:48:00,
2013-12-27 12:53:00,34.1,29.5,30.16,South,191,11.0,12.0,83,0.00,,,0.00,Wunderground v.1.15,2013-12-27 18:53:00,
2013-12-27 12:58:00,34.3,29.7,30.16,South,186,11.0,13.0,83,0.00,,,0.01,Wunderground v.1.15,2013-12-27 18:58:00,
2013-12-27 13:03:00,34.5,29.9,30.16,South,181,12.0,14.0,83,0.00,,,0.01,Wunderground v.1.15,2013-12-27 19:03:00,
2013-12-27 13:08:00,34.6,30.0,30.15,South,188,10.0,14.0,83,0.00,,,0.01,Wunderground v.1.15,2013-12-27 19:08:00,
2013-12-27 13:13:00,34.8,30.2,30.15,South,186,12.0,12.0,83,0.00,,,0.01,Wunderground v.1.15,2013-12-27 19:13:00,
2013-12-27 13:18:00,35.0,30.4,30.14,South,187,9.0,13.0,83,0.00,,,0.01,Wunderground v.1.15,2013-12-27 19:18:00,
2013-12-27 13:23:00,35.2,30.6,30.14,South,178,10.0,12.0,83,0.00,,,0.01,Wunderground v.1.15,2013-12-27 19:23:00,
2013-12-27 13:28:00,35.5,30.5,30.13,South,185,10.0,16.0,82,0.00,,,0.01,Wunderground v.1.15,2013-12-27 19:28:00,
2013-12-27 13:33:00,35.8,30.8,30.13,South,184,13.0,14.0,82,0.00,,,0.01,Wunderground v.1.15,2013-12-27 19:33:00,
2013-12-27 13:38:00,36.1,30.8,30.13,South,188,11.0,15.0,81,0.00,,,0.01,Wunderground v.1.15,2013-12-27 19:38:00,
2013-12-27 13:43:00,36.3,30.7,30.13,South,188,10.0,14.0,80,0.00,,,0.01,Wunderground v.1.15,2013-12-27 19:43:00,
2013-12-27 13:48:00,36.5,30.9,30.12,SSW,192,12.0,16.0,80,0.00,,,0.01,Wunderground v.1.15,2013-12-27 19:48:00,
2013-12-27 13:53:00,36.6,31.0,30.12,SSW,192,14.0,16.0,80,0.00,,,0.01,Wunderground v.1.15,2013-12-27 19:53:00,
2013-12-27 13:58:00,36.9,31.0,30.11,South,188,13.0,18.0,79,0.00,,,0.01,Wunderground v.1.15,2013-12-27 19:58:00,
2013-12-27 14:03:00,37.1,31.2,30.11,South,184,14.0,17.0,79,0.00,,,0.01,Wunderground v.1.15,2013-12-27 20:03:00,
2013-12-27 14:08:00,37.2,31.3,30.11,SSW,194,14.0,17.0,79,0.00,,,0.01,Wunderground v.1.15,2013-12-27 20:08:00,
2013-12-27 14:13:00,37.3,31.4,30.11,SSW,194,15.0,15.0,79,0.00,,,0.01,Wunderground v.1.15,2013-12-27 20:13:00,
2013-12-27 14:18:00,37.4,31.2,30.11,South,190,12.0,15.0,78,0.00,,,0.01,Wunderground v.1.15,2013-12-27 20:18:00,
2013-12-27 14:23:00,37.6,31.4,30.10,South,184,14.0,16.0,78,0.00,,,0.01,Wunderground v.1.15,2013-12-27 20:23:00,
2013-12-27 14:28:00,38.0,31.4,30.10,South,188,17.0,18.0,77,0.00,,,0.01,Wunderground v.1.15,2013-12-27 20:28:00,
2013-12-27 14:33:00,38.2,31.6,30.10,SSW,192,15.0,15.0,77,0.00,,,0.01,Wunderground v.1.15,2013-12-27 20:33:00,
2013-12-27 14:38:00,38.2,31.6,30.10,SSW,194,11.0,18.0,77,0.00,,,0.01,Wunderground v.1.15,2013-12-27 20:38:00,
2013-12-27 14:43:00,38.1,31.8,30.10,SSW,196,11.0,15.0,78,0.00,,,0.01,Wunderground v.1.15,2013-12-27 20:43:00,
2013-12-27 14:48:00,38.2,31.9,30.10,SSW,194,13.0,16.0,78,0.00,,,0.01,Wunderground v.1.15,2013-12-27 20:48:00,
2013-12-27 14:53:00,38.3,32.0,30.10,SSW,201,13.0,13.0,78,0.00,,,0.01,Wunderground v.1.15,2013-12-27 20:53:00,
2013-12-27 14:58:00,38.3,32.0,30.10,SSW,196,13.0,16.0,78,0.00,,,0.01,Wunderground v.1.15,2013-12-27 20:58:00,
2013-12-27 15:03:00,38.5,31.9,30.09,SSW,197,13.0,15.0,77,0.00,,,0.01,Wunderground v.1.15,2013-12-27 21:03:00,
2013-12-27 15:08:00,38.5,31.9,30.09,South,190,11.0,18.0,77,0.00,,,0.01,Wunderground v.1.15,2013-12-27 21:08:00,
2013-12-27 15:14:00,38.4,31.8,30.09,SSW,201,17.0,17.0,77,0.00,,,0.01,Wunderground v.1.15,2013-12-27 21:14:00,
2013-12-27 15:19:00,38.4,32.1,30.09,SSW,202,12.0,17.0,78,0.00,,,0.01,Wunderground v.1.15,2013-12-27 21:19:00,
2013-12-27 15:24:00,38.4,32.1,30.09,SSW,202,14.0,15.0,78,0.00,,,0.01,Wunderground v.1.15,2013-12-27 21:24:00,
2013-12-27 15:29:00,38.7,32.1,30.09,SSW,196,13.0,17.0,77,0.00,,,0.01,Wunderground v.1.15,2013-12-27 21:29:00,
2013-12-27 15:34:00,38.8,32.2,30.09,SSW,197,11.0,17.0,77,0.00,,,0.01,Wunderground v.1.15,2013-12-27 21:34:00,
2013-12-27 15:39:00,38.9,32.0,30.09,South,181,11.0,17.0,76,0.00,,,0.01,Wunderground v.1.15,2013-12-27 21:39:00,
2013-12-27 15:44:00,38.8,32.2,30.09,South,191,14.0,16.0,77,0.00,,,0.01,Wunderground v.1.15,2013-12-27 21:44:00,
2013-12-27 15:49:00,39.0,32.1,30.09,SSW,192,14.0,16.0,76,0.00,,,0.01,Wunderground v.1.15,2013-12-27 21:49:00,
2013-12-27 15:54:00,39.1,32.2,30.09,SSW,194,11.0,13.0,76,0.00,,,0.01,Wunderground v.1.15,2013-12-27 21:54:00,
2013-12-27 15:59:00,39.0,32.1,30.09,SSW,206,9.0,15.0,76,0.00,,,0.01,Wunderground v.1.15,2013-12-27 21:59:00,
2013-12-27 16:04:00,39.2,32.3,30.09,South,180,10.0,14.0,76,0.00,,,0.01,Wunderground v.1.15,2013-12-27 22:04:00,
2013-12-27 16:09:00,39.2,31.9,30.08,SSW,200,13.0,13.0,75,0.00,,,0.01,Wunderground v.1.15,2013-12-27 22:09:00,
2013-12-27 16:14:00,39.1,32.2,30.08,SSW,202,9.0,14.0,76,0.00,,,0.01,Wunderground v.1.15,2013-12-27 22:14:00,
2013-12-27 16:19:00,39.3,32.0,30.08,SSW,205,15.0,16.0,75,0.00,,,0.01,Wunderground v.1.15,2013-12-27 22:19:00,
2013-12-27 16:24:00,39.5,32.2,30.08,SSW,199,12.0,15.0,75,0.00,,,0.01,Wunderground v.1.15,2013-12-27 22:24:00,
2013-12-27 16:29:00,39.4,32.1,30.08,SSW,206,13.0,16.0,75,0.00,,,0.01,Wunderground v.1.15,2013-12-27 22:29:00,
2013-12-27 16:34:00,39.5,31.9,30.08,SSW,203,13.0,17.0,74,0.00,,,0.01,Wunderground v.1.15,2013-12-27 22:34:00,
2013-12-27 16:39:00,39.6,32.0,30.08,SSW,192,11.0,17.0,74,0.00,,,0.01,Wunderground v.1.15,2013-12-27 22:39:00,
2013-12-27 16:44:00,39.6,32.0,30.08,SSW,207,13.0,15.0,74,0.00,,,0.01,Wunderground v.1.15,2013-12-27 22:44:00,
2013-12-27 16:49:00,39.6,32.0,30.08,SSW,211,12.0,15.0,74,0.00,,,0.01,Wunderground v.1.15,2013-12-27 22:49:00,
2013-12-27 16:54:00,39.5,31.9,30.08,SSW,213,11.0,15.0,74,0.00,,,0.01,Wunderground v.1.15,2013-12-27 22:54:00,
2013-12-27 16:59:00,39.4,31.8,30.09,SW,216,11.0,15.0,74,0.00,,,0.01,Wunderground v.1.15,2013-12-27 22:59:00,
2013-12-27 17:04:00,39.1,31.8,30.09,SW,228,8.0,15.0,75,0.00,,,0.01,Wunderground v.1.15,2013-12-27 23:04:00,
2013-12-27 17:09:00,38.9,31.6,30.09,SW,220,11.0,12.0,75,0.00,,,0.01,Wunderground v.1.15,2013-12-27 23:09:00,
2013-12-27 17:14:00,38.9,31.6,30.09,SW,219,12.0,12.0,75,0.00,,,0.01,Wunderground v.1.15,2013-12-27 23:14:00,
2013-12-27 17:19:00,38.9,31.6,30.09,SW,229,11.0,14.0,75,0.00,,,0.01,Wunderground v.1.15,2013-12-27 23:19:00,
2013-12-27 17:24:00,38.9,31.6,30.09,SW,217,12.0,12.0,75,0.00,,,0.01,Wunderground v.1.15,2013-12-27 23:24:00,
2013-12-27 17:29:00,38.7,31.8,30.09,SW,215,9.0,12.0,76,0.00,,,0.01,Wunderground v.1.15,2013-12-27 23:29:00,
2013-12-27 17:34:00,38.7,31.5,30.09,SW,225,6.0,11.0,75,0.00,,,0.01,Wunderground v.1.15,2013-12-27 23:34:00,
2013-12-27 17:39:00,38.7,31.5,30.09,SW,221,7.0,11.0,75,0.00,,,0.01,Wunderground v.1.15,2013-12-27 23:39:00,
2013-12-27 17:44:00,38.8,31.6,30.10,WSW,242,7.0,9.0,75,0.00,,,0.01,Wunderground v.1.15,2013-12-27 23:44:00,
2013-12-27 17:49:00,38.8,31.6,30.10,West,259,9.0,9.0,75,0.00,,,0.01,Wunderground v.1.15,2013-12-27 23:49:00,
2013-12-27 17:54:00,38.7,31.5,30.10,SW,234,7.0,8.0,75,0.00,,,0.01,Wunderground v.1.15,2013-12-27 23:54:00,
2013-12-27 17:59:00,38.3,31.1,30.10,SW,232,6.0,8.0,75,0.00,,,0.01,Wunderground v.1.15,2013-12-27 23:59:00,
2013-12-27 18:04:00,37.9,31.0,30.10,SW,229,6.0,7.0,76,0.00,,,0.01,Wunderground v.1.15,2013-12-28 00:04:00,
2013-12-27 18:09:00,37.4,30.8,30.11,SW,235,6.0,6.0,77,0.00,,,0.01,Wunderground v.1.15,2013-12-28 00:09:00,
2013-12-27 18:14:00,37.1,30.6,30.11,SW,232,4.0,7.0,77,0.00,,,0.01,Wunderground v.1.15,2013-12-28 00:14:00,
2013-12-27 18:20:00,36.9,30.7,30.11,SW,229,8.0,8.0,78,0.00,,,0.01,Wunderground v.1.15,2013-12-28 00:20:00,
2013-12-27 18:25:00,37.0,30.8,30.11,SW,225,8.0,8.0,78,0.00,,,0.01,Wunderground v.1.15,2013-12-28 00:25:00,
2013-12-27 18:30:00,37.2,31.0,30.11,SW,224,8.0,10.0,78,0.00,,,0.01,Wunderground v.1.15,2013-12-28 00:30:00,
2013-12-27 18:35:00,37.2,31.0,30.11,SW,221,6.0,9.0,78,0.00,,,0.01,Wunderground v.1.15,2013-12-28 00:35:00,
2013-12-27 18:40:00,37.1,30.9,30.11,WSW,238,7.0,10.0,78,0.00,,,0.01,Wunderground v.1.15,2013-12-28 00:40:00,
2013-12-27 18:45:00,37.1,30.9,30.11,SW,227,7.0,8.0,78,0.00,,,0.01,Wunderground v.1.15,2013-12-28 00:45:00,
2013-12-27 18:50:00,37.1,30.9,30.11,SW,231,8.0,9.0,78,0.00,,,0.01,Wunderground v.1.15,2013-12-28 00:50:00,
2013-12-27 18:55:00,37.0,30.8,30.11,SW,227,7.0,9.0,78,0.00,,,0.01,Wunderground v.1.15,2013-12-28 00:55:00,
2013-12-27 19:00:00,36.8,30.9,30.11,WSW,240,8.0,8.0,79,0.00,,,0.01,Wunderground v.1.15,2013-12-28 01:00:00,
2013-12-27 19:05:00,36.8,30.9,30.10,SW,234,7.0,9.0,79,0.00,,,0.01,Wunderground v.1.15,2013-12-28 01:05:00,
2013-12-27 19:06:00,36.8,30.9,30.10,SW,227,6.0,9.0,79,0.00,,,0.01,Wunderground v.1.15,2013-12-28 01:06:00,
2013-12-27 19:13:00,36.9,31.0,30.11,SW,232,6.0,7.0,79,0.00,,,0.01,Wunderground v.1.15,2013-12-28 01:13:00,
2013-12-27 19:18:00,36.9,31.0,30.11,SW,221,8.0,8.0,79,0.00,,,0.01,Wunderground v.1.15,2013-12-28 01:18:00,
2013-12-27 19:23:00,37.0,31.1,30.11,SW,232,6.0,8.0,79,0.00,,,0.01,Wunderground v.1.15,2013-12-28 01:23:00,
2013-12-27 19:28:00,36.8,30.9,30.11,SW,232,7.0,8.0,79,0.00,,,0.01,Wunderground v.1.15,2013-12-28 01:28:00,
2013-12-27 19:33:00,36.5,30.6,30.11,SW,236,5.0,8.0,79,0.00,,,0.01,Wunderground v.1.15,2013-12-28 01:33:00,
2013-12-27 19:38:00,36.3,30.4,30.11,SW,235,7.0,9.0,79,0.00,,,0.01,Wunderground v.1.15,2013-12-28 01:38:00,
2013-12-27 19:43:00,36.3,30.7,30.11,SW,229,8.0,9.0,80,0.00,,,0.01,Wunderground v.1.15,2013-12-28 01:43:00,
2013-12-27 19:48:00,36.5,30.9,30.10,SW,228,8.0,10.0,80,0.00,,,0.01,Wunderground v.1.15,2013-12-28 01:48:00,
2013-12-27 19:53:00,36.5,30.9,30.10,SW,232,7.0,9.0,80,0.00,,,0.01,Wunderground v.1.15,2013-12-28 01:53:00,
2013-12-27 19:58:00,36.4,30.8,30.11,SW,223,6.0,9.0,80,0.00,,,0.01,Wunderground v.1.15,2013-12-28 01:58:00,
2013-12-27 20:06:00,36.4,30.8,30.11,SW,224,6.0,6.0,80,0.00,,,0.01,Wunderground v.1.15,2013-12-28 02:06:00,
2013-12-27 20:11:00,36.2,30.6,30.11,SW,223,6.0,7.0,80,0.00,,,0.01,Wunderground v.1.15,2013-12-28 02:11:00,
2013-12-27 20:16:00,36.1,30.5,30.11,SW,220,5.0,8.0,80,0.00,,,0.01,Wunderground v.1.15,2013-12-28 02:16:00,
2013-12-27 20:21:00,36.0,30.4,30.11,SW,217,9.0,9.0,80,0.00,,,0.01,Wunderground v.1.15,2013-12-28 02:21:00,
2013-12-27 20:26:00,36.2,30.6,30.11,SW,223,8.0,9.0,80,0.00,,,0.01,Wunderground v.1.15,2013-12-28 02:26:00,
2013-12-27 20:31:00,36.4,30.5,30.11,SW,229,6.0,9.0,79,0.00,,,0.01,Wunderground v.1.15,2013-12-28 02:31:00,
2013-12-27 20:36:00,36.1,29.9,30.11,SW,219,5.0,6.0,78,0.00,,,0.01,Wunderground v.1.15,2013-12-28 02:36:00,
2013-12-27 20:42:00,35.4,29.5,30.11,SW,234,4.0,5.0,79,0.00,,,0.01,Wunderground v.1.15,2013-12-28 02:42:00,
2013-12-27 20:47:00,35.0,29.5,30.11,SW,226,6.0,7.0,80,0.00,,,0.01,Wunderground v.1.15,2013-12-28 02:47:00,
2013-12-27 20:52:00,34.9,29.7,30.11,SW,230,5.0,6.0,81,0.00,,,0.01,Wunderground v.1.15,2013-12-28 02:52:00,
2013-12-27 20:57:00,34.6,29.4,30.11,SW,217,6.0,6.0,81,0.00,,,0.01,Wunderground v.1.15,2013-12-28 02:57:00,
2013-12-27 21:02:00,34.4,29.5,30.11,SW,221,5.0,5.0,82,0.00,,,0.01,Wunderground v.1.15,2013-12-28 03:02:00,
2013-12-27 21:08:00,34.3,29.4,30.11,SW,220,4.0,6.0,82,0.00,,,0.01,Wunderground v.1.15,2013-12-28 03:08:00,
2013-12-27 21:13:00,34.1,29.2,30.11,SW,230,6.0,6.0,82,0.00,,,0.01,Wunderground v.1.15,2013-12-28 03:13:00,
2013-12-27 21:18:00,34.1,29.5,30.11,SW,227,6.0,7.0,83,0.00,,,0.01,Wunderground v.1.15,2013-12-28 03:18:00,
2013-12-27 21:23:00,34.0,29.4,30.11,SW,229,7.0,8.0,83,0.00,,,0.01,Wunderground v.1.15,2013-12-28 03:23:00,
2013-12-27 21:28:00,33.9,29.3,30.11,SW,223,7.0,8.0,83,0.00,,,0.01,Wunderground v.1.15,2013-12-28 03:28:00,
2013-12-27 21:33:00,33.9,29.3,30.11,SW,228,7.0,7.0,83,0.00,,,0.01,Wunderground v.1.15,2013-12-28 03:33:00,
2013-12-27 21:38:00,34.1,29.5,30.11,SW,227,6.0,8.0,83,0.00,,,0.01,Wunderground v.1.15,2013-12-28 03:38:00,
2013-12-27 21:43:00,34.4,29.8,30.11,WSW,241,4.0,7.0,83,0.00,,,0.01,Wunderground v.1.15,2013-12-28 03:43:00,
2013-12-27 21:48:00,34.6,29.7,30.11,SW,236,3.0,7.0,82,0.00,,,0.01,Wunderground v.1.15,2013-12-28 03:48:00,
2013-12-27 21:53:00,34.8,29.9,30.11,WSW,237,5.0,6.0,82,0.00,,,0.01,Wunderground v.1.15,2013-12-28 03:53:00,
2013-12-27 21:58:00,35.1,30.2,30.11,WSW,237,5.0,7.0,82,0.00,,,0.01,Wunderground v.1.15,2013-12-28 03:58:00,
2013-12-27 22:03:00,35.2,30.3,30.11,SW,221,4.0,4.0,82,0.00,,,0.01,Wunderground v.1.15,2013-12-28 04:03:00,
2013-12-27 22:08:00,35.3,30.1,30.11,SW,229,4.0,7.0,81,0.00,,,0.01,Wunderground v.1.15,2013-12-28 04:08:00,
2013-12-27 22:13:00,35.5,30.2,30.11,SW,227,4.0,6.0,81,0.00,,,0.01,Wunderground v.1.15,2013-12-28 04:13:00,
2013-12-27 22:18:00,35.6,30.3,30.12,WSW,238,4.0,6.0,81,0.00,,,0.01,Wunderground v.1.15,2013-12-28 04:18:00,
2013-12-27 22:23:00,35.8,30.5,30.12,SW,225,2.0,5.0,81,0.00,,,0.01,Wunderground v.1.15,2013-12-28 04:23:00,
2013-12-27 22:28:00,35.9,30.3,30.12,SW,229,3.0,5.0,80,0.00,,,0.01,Wunderground v.1.15,2013-12-28 04:28:00,
2013-12-27 22:33:00,35.9,30.3,30.12,WSW,238,3.0,4.0,80,0.00,,,0.01,Wunderground v.1.15,2013-12-28 04:33:00,
2013-12-27 22:38:00,36.0,30.4,30.12,SW,230,3.0,5.0,80,0.00,,,0.01,Wunderground v.1.15,2013-12-28 04:38:00,
2013-12-27 22:43:00,36.0,30.4,30.12,WSW,244,4.0,6.0,80,0.00,,,0.01,Wunderground v.1.15,2013-12-28 04:43:00,
2013-12-27 22:48:00,36.0,30.4,30.12,WSW,250,6.0,9.0,80,0.00,,,0.01,Wunderground v.1.15,2013-12-28 04:48:00,
2013-12-27 22:53:00,36.3,30.7,30.12,SW,235,6.0,6.0,80,0.00,,,0.01,Wunderground v.1.15,2013-12-28 04:53:00,
2013-12-27 22:58:00,36.6,30.7,30.12,WSW,254,5.0,10.0,79,0.00,,,0.01,Wunderground v.1.15,2013-12-28 04:58:00,
2013-12-27 23:02:00,36.7,30.8,30.11,WSW,240,7.0,7.0,79,0.00,,,0.01,Wunderground v.1.15,2013-12-28 05:02:00,
2013-12-27 23:03:00,36.7,30.8,30.11,WSW,257,8.0,8.0,79,0.00,,,0.01,Wunderground v.1.15,2013-12-28 05:03:00,
2013-12-27 23:04:00,36.8,30.6,30.11,WSW,248,9.0,9.0,78,0.00,,,0.01,Wunderground v.1.15,2013-12-28 05:04:00,
2013-12-27 23:09:00,37.4,31.2,30.11,WSW,240,9.0,9.0,78,0.00,,,0.01,Wunderground v.1.15,2013-12-28 05:09:00,
2013-12-27 23:14:00,37.0,30.1,30.11,SW,236,4.0,7.0,76,0.00,,,0.01,Wunderground v.1.15,2013-12-28 05:14:00,
2013-12-27 23:19:00,35.9,29.4,30.11,SW,227,6.0,7.0,77,0.00,,,0.01,Wunderground v.1.15,2013-12-28 05:19:00,
2013-12-27 23:24:00,34.9,29.0,30.11,SW,227,5.0,5.0,79,0.00,,,0.01,Wunderground v.1.15,2013-12-28 05:24:00,
2013-12-27 23:29:00,34.5,29.0,30.11,SW,232,4.0,7.0,80,0.00,,,0.01,Wunderground v.1.15,2013-12-28 05:29:00,
2013-12-27 23:34:00,34.2,29.0,30.11,WSW,240,5.0,6.0,81,0.00,,,0.01,Wunderground v.1.15,2013-12-28 05:34:00,
2013-12-27 23:39:00,34.3,29.4,30.11,SW,234,5.0,6.0,82,0.00,,,0.01,Wunderground v.1.15,2013-12-28 05:39:00,
2013-12-27 23:44:00,34.4,29.5,30.11,WSW,240,6.0,7.0,82,0.00,,,0.01,Wunderground v.1.15,2013-12-28 05:44:00,
2013-12-27 23:49:00,34.4,29.2,30.10,SW,235,4.0,7.0,81,0.00,,,0.01,Wunderground v.1.15,2013-12-28 05:49:00,
2013-12-27 23:54:00,33.9,28.7,30.10,SW,230,4.0,5.0,81,0.00,,,0.00,Wunderground v.1.15,2013-12-28 05:54:00,